Harwood Heights, Illinois
Current Conditions -  °F | °C
As of 10:51 PM on Thursday 30 Oct 2014 (Local Time) from KORD Reporting Station
Overcast Overcast  
Wind Chill: 42°   Ceiling: 10000
Heat Index: 46°   Visibility: 10mi
Dew Point: 36°   Wind: 7mph
Humidity: 68%   Direction: 270°W
Pressure: 30.04"   Gusts: NA
Location:  41.97°N, 87.81°W
Report Text: KORD 310351Z 27006KT 10SM OVC100 08/02 A3004 RMK AO2 SLP176 T00780022
Loading
Personal Weather Stations






























Interactive Weather Map
Tropical Storm Tracking
New forecast layout! Learn more

10-Day Weather Forecast

Advertisements
Track Severe Weather on mobile